sensor_id;sensor_type;location;lat;lon;timestamp;P1;durP1;ratioP1;P2;durP2;ratioP2
10293;SDS011;5192;50.328;7.610;2023-12-29T00:01:13;3.07;;;2.13;;
10293;SDS011;5192;50.328;7.610;2023-12-29T00:03:39;4.03;;;1.70;;
10293;SDS011;5192;50.328;7.610;2023-12-29T00:06:07;2.53;;;2.10;;
10293;SDS011;5192;50.328;7.610;2023-12-29T00:08:36;1.93;;;1.70;;
10293;SDS011;5192;50.328;7.610;2023-12-29T00:11:03;3.20;;;1.70;;
10293;SDS011;5192;50.328;7.610;2023-12-29T00:13:31;2.97;;;1.90;;
10293;SDS011;5192;50.328;7.610;2023-12-29T00:15:58;2.13;;;1.53;;
10293;SDS011;5192;50.328;7.610;2023-12-29T00:18:24;4.63;;;1.90;;
10293;SDS011;5192;50.328;7.610;2023-12-29T00:20:52;2.03;;;1.80;;
10293;SDS011;5192;50.328;7.610;2023-12-29T00:23:20;2.80;;;2.00;;
10293;SDS011;5192;50.328;7.610;2023-12-29T00:25:49;3.20;;;1.87;;
10293;SDS011;5192;50.328;7.610;2023-12-29T00:28:16;3.43;;;1.73;;
10293;SDS011;5192;50.328;7.610;2023-12-29T00:30:43;2.80;;;1.80;;
10293;SDS011;5192;50.328;7.610;2023-12-29T00:33:12;2.73;;;1.90;;
10293;SDS011;5192;50.328;7.610;2023-12-29T00:35:42;2.87;;;2.10;;
10293;SDS011;5192;50.328;7.610;2023-12-29T00:38:09;2.90;;;1.70;;
10293;SDS011;5192;50.328;7.610;2023-12-29T00:40:35;2.77;;;1.70;;
10293;SDS011;5192;50.328;7.610;2023-12-29T00:43:02;2.63;;;1.70;;
10293;SDS011;5192;50.328;7.610;2023-12-29T00:45:29;3.33;;;1.50;;
10293;SDS011;5192;50.328;7.610;2023-12-29T00:48:02;3.10;;;2.13;;
10293;SDS011;5192;50.328;7.610;2023-12-29T00:50:29;3.67;;;1.73;;
10293;SDS011;5192;50.328;7.610;2023-12-29T00:52:57;2.70;;;1.70;;
10293;SDS011;5192;50.328;7.610;2023-12-29T00:55:22;2.90;;;1.63;;
10293;SDS011;5192;50.328;7.610;2023-12-29T00:57:50;4.33;;;1.90;;
10293;SDS011;5192;50.328;7.610;2023-12-29T01:00:16;3.87;;;1.90;;
10293;SDS011;5192;50.328;7.610;2023-12-29T01:02:42;5.60;;;1.80;;
10293;SDS011;5192;50.328;7.610;2023-12-29T01:05:15;3.50;;;2.30;;
10293;SDS011;5192;50.328;7.610;2023-12-29T01:07:43;3.53;;;1.23;;
10293;SDS011;5192;50.328;7.610;2023-12-29T01:10:09;3.20;;;1.80;;
10293;SDS011;5192;50.328;7.610;2023-12-29T01:12:37;2.80;;;1.40;;
10293;SDS011;5192;50.328;7.610;2023-12-29T01:15:04;2.57;;;1.47;;
10293;SDS011;5192;50.328;7.610;2023-12-29T01:17:32;2.20;;;1.77;;
10293;SDS011;5192;50.328;7.610;2023-12-29T01:19:59;3.33;;;2.23;;
10293;SDS011;5192;50.328;7.610;2023-12-29T01:22:29;5.50;;;1.80;;
10293;SDS011;5192;50.328;7.610;2023-12-29T01:24:55;2.67;;;1.80;;
10293;SDS011;5192;50.328;7.610;2023-12-29T01:27:24;2.63;;;1.60;;
10293;SDS011;5192;50.328;7.610;2023-12-29T01:29:51;3.07;;;1.70;;
10293;SDS011;5192;50.328;7.610;2023-12-29T01:32:19;2.13;;;1.50;;
10293;SDS011;5192;50.328;7.610;2023-12-29T01:34:48;4.57;;;1.90;;
10293;SDS011;5192;50.328;7.610;2023-12-29T01:37:15;3.20;;;1.60;;
10293;SDS011;5192;50.328;7.610;2023-12-29T01:39:42;3.90;;;1.80;;
10293;SDS011;5192;50.328;7.610;2023-12-29T01:42:08;5.23;;;2.17;;
10293;SDS011;5192;50.328;7.610;2023-12-29T01:44:39;3.77;;;1.80;;
10293;SDS011;5192;50.328;7.610;2023-12-29T01:47:15;5.20;;;2.00;;
10293;SDS011;5192;50.328;7.610;2023-12-29T01:49:46;3.33;;;1.73;;
10293;SDS011;5192;50.328;7.610;2023-12-29T01:52:15;7.63;;;2.00;;
10293;SDS011;5192;50.328;7.610;2023-12-29T01:54:42;3.10;;;1.70;;
10293;SDS011;5192;50.328;7.610;2023-12-29T01:57:10;2.40;;;1.70;;
10293;SDS011;5192;50.328;7.610;2023-12-29T01:59:37;4.17;;;1.80;;
10293;SDS011;5192;50.328;7.610;2023-12-29T02:02:04;3.33;;;1.37;;
10293;SDS011;5192;50.328;7.610;2023-12-29T02:04:32;2.47;;;1.60;;
10293;SDS011;5192;50.328;7.610;2023-12-29T02:06:59;4.60;;;1.77;;
10293;SDS011;5192;50.328;7.610;2023-12-29T02:09:27;3.83;;;1.50;;
10293;SDS011;5192;50.328;7.610;2023-12-29T02:11:54;3.97;;;1.87;;
10293;SDS011;5192;50.328;7.610;2023-12-29T02:14:22;3.90;;;1.63;;
10293;SDS011;5192;50.328;7.610;2023-12-29T02:19:41;3.63;;;1.70;;
10293;SDS011;5192;50.328;7.610;2023-12-29T02:22:10;4.17;;;1.77;;
10293;SDS011;5192;50.328;7.610;2023-12-29T02:24:37;2.27;;;1.53;;
10293;SDS011;5192;50.328;7.610;2023-12-29T02:29:53;3.03;;;2.03;;
10293;SDS011;5192;50.328;7.610;2023-12-29T02:32:23;4.77;;;1.70;;
10293;SDS011;5192;50.328;7.610;2023-12-29T02:34:53;3.37;;;1.60;;
10293;SDS011;5192;50.328;7.610;2023-12-29T02:37:21;2.27;;;1.77;;
10293;SDS011;5192;50.328;7.610;2023-12-29T02:39:48;4.37;;;1.93;;
10293;SDS011;5192;50.328;7.610;2023-12-29T02:42:14;3.53;;;1.90;;
10293;SDS011;5192;50.328;7.610;2023-12-29T02:44:43;3.53;;;1.83;;
10293;SDS011;5192;50.328;7.610;2023-12-29T02:47:09;2.80;;;1.70;;
10293;SDS011;5192;50.328;7.610;2023-12-29T02:49:36;5.90;;;1.50;;
10293;SDS011;5192;50.328;7.610;2023-12-29T02:52:05;3.83;;;1.87;;
10293;SDS011;5192;50.328;7.610;2023-12-29T02:54:33;3.70;;;1.87;;
10293;SDS011;5192;50.328;7.610;2023-12-29T02:57:01;4.77;;;1.83;;
10293;SDS011;5192;50.328;7.610;2023-12-29T02:59:27;3.03;;;1.73;;
10293;SDS011;5192;50.328;7.610;2023-12-29T03:01:53;2.83;;;1.50;;
10293;SDS011;5192;50.328;7.610;2023-12-29T03:04:21;4.20;;;1.70;;
10293;SDS011;5192;50.328;7.610;2023-12-29T03:06:48;4.77;;;1.97;;
10293;SDS011;5192;50.328;7.610;2023-12-29T03:09:16;3.30;;;1.50;;
10293;SDS011;5192;50.328;7.610;2023-12-29T03:11:42;2.13;;;1.63;;
10293;SDS011;5192;50.328;7.610;2023-12-29T03:14:09;4.23;;;2.10;;
10293;SDS011;5192;50.328;7.610;2023-12-29T03:16:38;3.43;;;1.77;;
10293;SDS011;5192;50.328;7.610;2023-12-29T03:19:04;1.87;;;1.60;;
10293;SDS011;5192;50.328;7.610;2023-12-29T03:21:31;3.67;;;2.10;;
10293;SDS011;5192;50.328;7.610;2023-12-29T03:23:59;3.30;;;1.63;;
10293;SDS011;5192;50.328;7.610;2023-12-29T03:26:26;4.70;;;1.77;;
10293;SDS011;5192;50.328;7.610;2023-12-29T03:28:54;3.13;;;1.20;;
10293;SDS011;5192;50.328;7.610;2023-12-29T03:31:20;4.53;;;1.63;;
10293;SDS011;5192;50.328;7.610;2023-12-29T03:33:48;3.90;;;1.97;;
10293;SDS011;5192;50.328;7.610;2023-12-29T03:36:17;3.23;;;1.60;;
10293;SDS011;5192;50.328;7.610;2023-12-29T03:38:44;3.00;;;1.60;;
10293;SDS011;5192;50.328;7.610;2023-12-29T03:41:10;3.17;;;1.70;;
10293;SDS011;5192;50.328;7.610;2023-12-29T03:43:38;3.97;;;1.70;;
10293;SDS011;5192;50.328;7.610;2023-12-29T03:46:15;4.00;;;1.87;;
10293;SDS011;5192;50.328;7.610;2023-12-29T03:48:43;5.27;;;1.80;;
10293;SDS011;5192;50.328;7.610;2023-12-29T03:51:10;6.13;;;1.80;;
10293;SDS011;5192;50.328;7.610;2023-12-29T03:53:38;4.87;;;1.80;;
10293;SDS011;5192;50.328;7.610;2023-12-29T03:56:09;6.97;;;1.97;;
10293;SDS011;5192;50.328;7.610;2023-12-29T03:58:36;6.43;;;1.77;;
10293;SDS011;5192;50.328;7.610;2023-12-29T04:01:02;3.47;;;1.60;;
10293;SDS011;5192;50.328;7.610;2023-12-29T04:03:32;3.37;;;1.67;;
10293;SDS011;5192;50.328;7.610;2023-12-29T04:06:00;7.30;;;1.80;;
10293;SDS011;5192;50.328;7.610;2023-12-29T04:08:26;4.17;;;2.10;;
10293;SDS011;5192;50.328;7.610;2023-12-29T04:10:52;4.97;;;1.87;;
10293;SDS011;5192;50.328;7.610;2023-12-29T04:13:20;3.13;;;1.70;;
10293;SDS011;5192;50.328;7.610;2023-12-29T04:15:49;4.53;;;1.63;;
10293;SDS011;5192;50.328;7.610;2023-12-29T04:18:15;4.03;;;2.00;;
10293;SDS011;5192;50.328;7.610;2023-12-29T04:20:41;3.73;;;1.70;;
10293;SDS011;5192;50.328;7.610;2023-12-29T04:23:10;3.30;;;1.70;;
10293;SDS011;5192;50.328;7.610;2023-12-29T04:25:38;4.30;;;1.73;;
10293;SDS011;5192;50.328;7.610;2023-12-29T04:28:06;3.73;;;1.90;;
10293;SDS011;5192;50.328;7.610;2023-12-29T04:30:36;2.47;;;1.60;;
10293;SDS011;5192;50.328;7.610;2023-12-29T04:33:04;3.97;;;1.83;;
10293;SDS011;5192;50.328;7.610;2023-12-29T04:35:33;4.50;;;1.93;;
10293;SDS011;5192;50.328;7.610;2023-12-29T04:37:58;3.73;;;1.83;;
10293;SDS011;5192;50.328;7.610;2023-12-29T04:40:24;2.90;;;1.87;;
10293;SDS011;5192;50.328;7.610;2023-12-29T04:42:53;3.53;;;1.43;;
10293;SDS011;5192;50.328;7.610;2023-12-29T04:45:21;5.00;;;1.80;;
10293;SDS011;5192;50.328;7.610;2023-12-29T04:47:47;4.17;;;1.80;;
10293;SDS011;5192;50.328;7.610;2023-12-29T04:50:14;5.57;;;1.87;;
10293;SDS011;5192;50.328;7.610;2023-12-29T04:52:43;3.67;;;1.77;;
10293;SDS011;5192;50.328;7.610;2023-12-29T04:55:11;2.53;;;1.93;;
10293;SDS011;5192;50.328;7.610;2023-12-29T04:57:39;3.30;;;1.60;;
10293;SDS011;5192;50.328;7.610;2023-12-29T05:00:06;3.83;;;2.07;;
10293;SDS011;5192;50.328;7.610;2023-12-29T05:02:33;4.33;;;1.97;;
10293;SDS011;5192;50.328;7.610;2023-12-29T05:05:00;2.40;;;1.70;;
10293;SDS011;5192;50.328;7.610;2023-12-29T05:07:28;3.97;;;1.80;;
10293;SDS011;5192;50.328;7.610;2023-12-29T05:09:54;2.33;;;1.50;;
10293;SDS011;5192;50.328;7.610;2023-12-29T05:12:23;3.87;;;1.80;;
10293;SDS011;5192;50.328;7.610;2023-12-29T05:14:52;3.57;;;2.27;;
10293;SDS011;5192;50.328;7.610;2023-12-29T05:17:19;4.43;;;1.90;;
10293;SDS011;5192;50.328;7.610;2023-12-29T05:19:45;2.93;;;1.60;;
10293;SDS011;5192;50.328;7.610;2023-12-29T05:22:13;4.87;;;1.90;;
10293;SDS011;5192;50.328;7.610;2023-12-29T05:24:42;3.00;;;1.53;;
10293;SDS011;5192;50.328;7.610;2023-12-29T05:27:10;2.53;;;1.63;;
10293;SDS011;5192;50.328;7.610;2023-12-29T05:29:37;3.50;;;1.50;;
10293;SDS011;5192;50.328;7.610;2023-12-29T05:32:05;4.43;;;1.80;;
10293;SDS011;5192;50.328;7.610;2023-12-29T05:34:35;3.30;;;1.43;;
10293;SDS011;5192;50.328;7.610;2023-12-29T05:37:02;3.73;;;1.70;;
10293;SDS011;5192;50.328;7.610;2023-12-29T05:39:28;5.80;;;1.97;;
10293;SDS011;5192;50.328;7.610;2023-12-29T05:41:57;3.23;;;1.70;;
10293;SDS011;5192;50.328;7.610;2023-12-29T05:44:23;2.23;;;1.30;;
10293;SDS011;5192;50.328;7.610;2023-12-29T05:46:50;5.20;;;1.67;;
10293;SDS011;5192;50.328;7.610;2023-12-29T05:49:24;4.60;;;2.07;;
10293;SDS011;5192;50.328;7.610;2023-12-29T05:51:52;2.10;;;1.47;;
10293;SDS011;5192;50.328;7.610;2023-12-29T05:54:20;1.57;;;1.43;;
10293;SDS011;5192;50.328;7.610;2023-12-29T05:56:49;5.03;;;1.80;;
10293;SDS011;5192;50.328;7.610;2023-12-29T05:59:16;3.13;;;1.37;;
10293;SDS011;5192;50.328;7.610;2023-12-29T06:01:45;1.90;;;1.17;;
10293;SDS011;5192;50.328;7.610;2023-12-29T06:04:11;6.60;;;1.50;;
10293;SDS011;5192;50.328;7.610;2023-12-29T06:06:37;1.53;;;1.20;;
10293;SDS011;5192;50.328;7.610;2023-12-29T06:09:05;3.33;;;1.40;;
10293;SDS011;5192;50.328;7.610;2023-12-29T06:11:33;3.20;;;1.47;;
10293;SDS011;5192;50.328;7.610;2023-12-29T06:13:59;3.70;;;1.67;;
10293;SDS011;5192;50.328;7.610;2023-12-29T06:16:26;3.33;;;1.30;;
10293;SDS011;5192;50.328;7.610;2023-12-29T06:18:55;3.47;;;1.37;;
10293;SDS011;5192;50.328;7.610;2023-12-29T06:21:23;2.47;;;1.77;;
10293;SDS011;5192;50.328;7.610;2023-12-29T06:23:49;2.67;;;1.60;;
10293;SDS011;5192;50.328;7.610;2023-12-29T06:26:19;3.73;;;1.50;;
10293;SDS011;5192;50.328;7.610;2023-12-29T06:28:51;2.30;;;1.83;;
10293;SDS011;5192;50.328;7.610;2023-12-29T06:31:18;1.70;;;1.23;;
10293;SDS011;5192;50.328;7.610;2023-12-29T06:33:46;2.63;;;1.37;;
10293;SDS011;5192;50.328;7.610;2023-12-29T06:36:15;1.70;;;1.30;;
10293;SDS011;5192;50.328;7.610;2023-12-29T06:38:41;2.20;;;1.87;;
10293;SDS011;5192;50.328;7.610;2023-12-29T06:41:09;2.87;;;1.50;;
10293;SDS011;5192;50.328;7.610;2023-12-29T06:43:36;3.00;;;1.43;;
10293;SDS011;5192;50.328;7.610;2023-12-29T06:46:04;4.00;;;1.63;;
10293;SDS011;5192;50.328;7.610;2023-12-29T06:48:33;3.33;;;1.23;;
10293;SDS011;5192;50.328;7.610;2023-12-29T06:50:59;2.67;;;1.20;;
10293;SDS011;5192;50.328;7.610;2023-12-29T06:53:28;4.20;;;1.63;;
10293;SDS011;5192;50.328;7.610;2023-12-29T06:55:55;3.17;;;1.60;;
10293;SDS011;5192;50.328;7.610;2023-12-29T06:58:24;2.13;;;1.30;;
10293;SDS011;5192;50.328;7.610;2023-12-29T07:00:50;1.80;;;1.30;;
10293;SDS011;5192;50.328;7.610;2023-12-29T07:03:19;3.03;;;1.30;;
10293;SDS011;5192;50.328;7.610;2023-12-29T07:05:47;4.70;;;1.80;;
10293;SDS011;5192;50.328;7.610;2023-12-29T07:08:15;2.63;;;1.33;;
10293;SDS011;5192;50.328;7.610;2023-12-29T07:10:41;3.27;;;1.27;;
10293;SDS011;5192;50.328;7.610;2023-12-29T07:13:07;2.63;;;1.50;;
10293;SDS011;5192;50.328;7.610;2023-12-29T07:15:36;3.00;;;1.60;;
10293;SDS011;5192;50.328;7.610;2023-12-29T07:18:02;2.90;;;1.50;;
10293;SDS011;5192;50.328;7.610;2023-12-29T07:20:28;2.17;;;1.27;;
10293;SDS011;5192;50.328;7.610;2023-12-29T07:22:57;3.80;;;1.90;;
10293;SDS011;5192;50.328;7.610;2023-12-29T07:25:24;2.60;;;1.30;;
10293;SDS011;5192;50.328;7.610;2023-12-29T07:27:51;3.23;;;1.40;;
10293;SDS011;5192;50.328;7.610;2023-12-29T07:30:18;1.47;;;1.07;;
10293;SDS011;5192;50.328;7.610;2023-12-29T07:32:46;2.37;;;1.27;;
10293;SDS011;5192;50.328;7.610;2023-12-29T07:35:13;2.20;;;1.23;;
10293;SDS011;5192;50.328;7.610;2023-12-29T07:37:45;4.37;;;1.40;;
10293;SDS011;5192;50.328;7.610;2023-12-29T07:40:12;3.20;;;1.43;;
10293;SDS011;5192;50.328;7.610;2023-12-29T07:42:41;2.63;;;1.23;;
10293;SDS011;5192;50.328;7.610;2023-12-29T07:45:09;4.43;;;1.30;;
10293;SDS011;5192;50.328;7.610;2023-12-29T07:47:37;2.90;;;1.10;;
10293;SDS011;5192;50.328;7.610;2023-12-29T07:50:05;4.00;;;1.10;;
10293;SDS011;5192;50.328;7.610;2023-12-29T07:52:32;2.17;;;1.07;;
10293;SDS011;5192;50.328;7.610;2023-12-29T07:55:00;2.70;;;1.07;;
10293;SDS011;5192;50.328;7.610;2023-12-29T07:57:27;3.07;;;1.10;;
10293;SDS011;5192;50.328;7.610;2023-12-29T07:59:54;3.90;;;1.43;;
10293;SDS011;5192;50.328;7.610;2023-12-29T08:02:22;3.63;;;1.13;;
10293;SDS011;5192;50.328;7.610;2023-12-29T08:04:49;2.70;;;1.20;;
10293;SDS011;5192;50.328;7.610;2023-12-29T08:07:17;1.90;;;1.10;;
10293;SDS011;5192;50.328;7.610;2023-12-29T08:09:43;2.00;;;1.00;;
10293;SDS011;5192;50.328;7.610;2023-12-29T08:12:11;2.80;;;1.00;;
10293;SDS011;5192;50.328;7.610;2023-12-29T08:14:40;5.63;;;1.53;;
10293;SDS011;5192;50.328;7.610;2023-12-29T08:17:07;2.53;;;1.20;;
10293;SDS011;5192;50.328;7.610;2023-12-29T08:19:35;2.47;;;0.97;;
10293;SDS011;5192;50.328;7.610;2023-12-29T08:22:03;2.00;;;1.10;;
10293;SDS011;5192;50.328;7.610;2023-12-29T08:24:30;2.93;;;1.30;;
10293;SDS011;5192;50.328;7.610;2023-12-29T08:26:57;2.90;;;1.17;;
10293;SDS011;5192;50.328;7.610;2023-12-29T08:29:24;2.30;;;0.80;;
10293;SDS011;5192;50.328;7.610;2023-12-29T08:31:51;4.07;;;1.30;;
10293;SDS011;5192;50.328;7.610;2023-12-29T08:34:17;2.30;;;0.90;;
10293;SDS011;5192;50.328;7.610;2023-12-29T08:36:45;1.90;;;0.90;;
10293;SDS011;5192;50.328;7.610;2023-12-29T08:39:12;3.53;;;0.90;;
10293;SDS011;5192;50.328;7.610;2023-12-29T08:41:40;2.00;;;0.87;;
10293;SDS011;5192;50.328;7.610;2023-12-29T08:44:07;2.13;;;0.90;;
10293;SDS011;5192;50.328;7.610;2023-12-29T08:46:35;3.93;;;1.20;;
10293;SDS011;5192;50.328;7.610;2023-12-29T08:49:03;3.07;;;1.10;;
10293;SDS011;5192;50.328;7.610;2023-12-29T08:51:31;3.83;;;1.60;;
10293;SDS011;5192;50.328;7.610;2023-12-29T08:53:58;2.93;;;0.90;;
10293;SDS011;5192;50.328;7.610;2023-12-29T08:56:27;1.93;;;1.10;;
10293;SDS011;5192;50.328;7.610;2023-12-29T08:58:55;4.27;;;1.27;;
10293;SDS011;5192;50.328;7.610;2023-12-29T09:01:22;2.40;;;0.80;;
10293;SDS011;5192;50.328;7.610;2023-12-29T09:03:50;2.03;;;1.00;;
10293;SDS011;5192;50.328;7.610;2023-12-29T09:06:17;2.37;;;1.23;;
10293;SDS011;5192;50.328;7.610;2023-12-29T09:08:43;2.40;;;1.50;;
10293;SDS011;5192;50.328;7.610;2023-12-29T09:11:12;1.13;;;0.90;;
10293;SDS011;5192;50.328;7.610;2023-12-29T09:13:40;2.53;;;0.87;;
10293;SDS011;5192;50.328;7.610;2023-12-29T09:16:06;2.13;;;0.90;;
10293;SDS011;5192;50.328;7.610;2023-12-29T09:18:32;2.17;;;1.00;;
10293;SDS011;5192;50.328;7.610;2023-12-29T09:20:59;5.13;;;1.07;;
10293;SDS011;5192;50.328;7.610;2023-12-29T09:23:27;1.17;;;0.90;;
10293;SDS011;5192;50.328;7.610;2023-12-29T09:25:54;1.30;;;1.00;;
10293;SDS011;5192;50.328;7.610;2023-12-29T09:28:20;3.43;;;1.10;;
10293;SDS011;5192;50.328;7.610;2023-12-29T09:30:48;2.87;;;0.90;;
10293;SDS011;5192;50.328;7.610;2023-12-29T09:33:14;3.63;;;1.00;;
10293;SDS011;5192;50.328;7.610;2023-12-29T09:35:42;2.30;;;1.23;;
10293;SDS011;5192;50.328;7.610;2023-12-29T09:38:10;2.27;;;0.90;;
10293;SDS011;5192;50.328;7.610;2023-12-29T09:40:36;2.17;;;0.83;;
10293;SDS011;5192;50.328;7.610;2023-12-29T09:43:03;3.70;;;1.10;;
10293;SDS011;5192;50.328;7.610;2023-12-29T09:45:37;2.33;;;1.10;;
10293;SDS011;5192;50.328;7.610;2023-12-29T09:48:06;2.37;;;1.07;;
10293;SDS011;5192;50.328;7.610;2023-12-29T09:50:36;1.57;;;0.90;;
10293;SDS011;5192;50.328;7.610;2023-12-29T09:53:02;1.37;;;1.00;;
10293;SDS011;5192;50.328;7.610;2023-12-29T09:55:28;1.77;;;0.90;;
10293;SDS011;5192;50.328;7.610;2023-12-29T09:57:57;0.87;;;0.87;;
10293;SDS011;5192;50.328;7.610;2023-12-29T10:00:25;1.73;;;1.00;;
10293;SDS011;5192;50.328;7.610;2023-12-29T10:02:55;1.27;;;1.17;;
10293;SDS011;5192;50.328;7.610;2023-12-29T10:05:23;1.83;;;0.97;;
10293;SDS011;5192;50.328;7.610;2023-12-29T10:07:50;2.37;;;0.93;;
10293;SDS011;5192;50.328;7.610;2023-12-29T10:10:18;2.00;;;0.80;;
10293;SDS011;5192;50.328;7.610;2023-12-29T10:12:50;1.20;;;0.90;;
10293;SDS011;5192;50.328;7.610;2023-12-29T10:20:50;1.13;;;0.90;;
10293;SDS011;5192;50.328;7.610;2023-12-29T10:23:19;2.83;;;1.00;;
10293;SDS011;5192;50.328;7.610;2023-12-29T10:25:47;1.67;;;0.83;;
10293;SDS011;5192;50.328;7.610;2023-12-29T10:28:22;2.07;;;1.20;;
10293;SDS011;5192;50.328;7.610;2023-12-29T10:30:49;2.20;;;0.90;;
10293;SDS011;5192;50.328;7.610;2023-12-29T10:33:22;2.27;;;0.80;;
10293;SDS011;5192;50.328;7.610;2023-12-29T10:35:58;0.80;;;0.80;;
10293;SDS011;5192;50.328;7.610;2023-12-29T10:38:33;0.90;;;0.90;;
10293;SDS011;5192;50.328;7.610;2023-12-29T10:43:46;0.80;;;0.60;;
10293;SDS011;5192;50.328;7.610;2023-12-29T10:46:18;1.33;;;0.90;;
10293;SDS011;5192;50.328;7.610;2023-12-29T10:48:45;1.07;;;0.80;;
10293;SDS011;5192;50.328;7.610;2023-12-29T10:51:14;1.20;;;0.70;;
10293;SDS011;5192;50.328;7.610;2023-12-29T10:53:40;0.60;;;0.60;;
10293;SDS011;5192;50.328;7.610;2023-12-29T10:56:17;1.60;;;1.13;;
10293;SDS011;5192;50.328;7.610;2023-12-29T10:59:02;2.20;;;0.80;;
10293;SDS011;5192;50.328;7.610;2023-12-29T11:01:30;2.07;;;0.87;;
10293;SDS011;5192;50.328;7.610;2023-12-29T11:04:01;1.13;;;1.00;;
10293;SDS011;5192;50.328;7.610;2023-12-29T11:06:30;1.20;;;0.80;;
10293;SDS011;5192;50.328;7.610;2023-12-29T11:09:10;2.40;;;1.10;;
10293;SDS011;5192;50.328;7.610;2023-12-29T11:11:37;1.40;;;0.87;;
10293;SDS011;5192;50.328;7.610;2023-12-29T11:14:08;2.43;;;0.90;;
10293;SDS011;5192;50.328;7.610;2023-12-29T11:16:37;1.03;;;0.80;;
10293;SDS011;5192;50.328;7.610;2023-12-29T11:19:04;2.63;;;0.93;;
10293;SDS011;5192;50.328;7.610;2023-12-29T11:21:31;0.80;;;0.70;;
10293;SDS011;5192;50.328;7.610;2023-12-29T11:24:00;2.23;;;0.80;;
10293;SDS011;5192;50.328;7.610;2023-12-29T11:26:28;1.17;;;0.63;;
10293;SDS011;5192;50.328;7.610;2023-12-29T11:28:57;1.23;;;1.03;;
10293;SDS011;5192;50.328;7.610;2023-12-29T11:31:25;0.93;;;0.80;;
10293;SDS011;5192;50.328;7.610;2023-12-29T11:33:56;1.97;;;0.67;;
10293;SDS011;5192;50.328;7.610;2023-12-29T11:36:32;3.17;;;0.80;;
10293;SDS011;5192;50.328;7.610;2023-12-29T11:39:49;1.10;;;0.90;;
10293;SDS011;5192;50.328;7.610;2023-12-29T11:44:37;1.27;;;0.70;;
10293;SDS011;5192;50.328;7.610;2023-12-29T11:47:04;1.13;;;0.70;;
10293;SDS011;5192;50.328;7.610;2023-12-29T11:52:32;1.10;;;0.80;;
10293;SDS011;5192;50.328;7.610;2023-12-29T11:55:16;0.80;;;0.70;;
10293;SDS011;5192;50.328;7.610;2023-12-29T11:57:46;1.87;;;0.80;;
10293;SDS011;5192;50.328;7.610;2023-12-29T12:00:15;1.07;;;0.90;;
10293;SDS011;5192;50.328;7.610;2023-12-29T12:02:41;1.00;;;0.90;;
10293;SDS011;5192;50.328;7.610;2023-12-29T12:05:10;2.17;;;0.80;;
10293;SDS011;5192;50.328;7.610;2023-12-29T12:12:52;0.83;;;0.83;;
10293;SDS011;5192;50.328;7.610;2023-12-29T12:18:10;3.43;;;1.10;;
10293;SDS011;5192;50.328;7.610;2023-12-29T12:20:38;2.33;;;1.10;;
10293;SDS011;5192;50.328;7.610;2023-12-29T12:23:11;1.53;;;0.70;;
10293;SDS011;5192;50.328;7.610;2023-12-29T12:25:37;3.27;;;1.17;;
10293;SDS011;5192;50.328;7.610;2023-12-29T12:28:05;2.07;;;1.00;;
10293;SDS011;5192;50.328;7.610;2023-12-29T12:30:33;1.77;;;0.67;;
10293;SDS011;5192;50.328;7.610;2023-12-29T12:33:02;1.10;;;1.00;;
10293;SDS011;5192;50.328;7.610;2023-12-29T12:35:32;1.87;;;0.60;;
10293;SDS011;5192;50.328;7.610;2023-12-29T12:40:48;1.43;;;1.00;;
10293;SDS011;5192;50.328;7.610;2023-12-29T12:43:16;1.83;;;0.90;;
10293;SDS011;5192;50.328;7.610;2023-12-29T12:45:47;1.70;;;1.10;;
10293;SDS011;5192;50.328;7.610;2023-12-29T12:50:59;2.00;;;0.60;;
10293;SDS011;5192;50.328;7.610;2023-12-29T12:53:28;1.07;;;0.80;;
10293;SDS011;5192;50.328;7.610;2023-12-29T12:55:55;0.63;;;0.60;;
10293;SDS011;5192;50.328;7.610;2023-12-29T12:58:21;0.70;;;0.70;;
10293;SDS011;5192;50.328;7.610;2023-12-29T13:00:53;1.90;;;0.60;;
10293;SDS011;5192;50.328;7.610;2023-12-29T13:03:22;2.43;;;0.60;;
10293;SDS011;5192;50.328;7.610;2023-12-29T13:05:49;1.30;;;0.70;;
10293;SDS011;5192;50.328;7.610;2023-12-29T13:08:16;0.97;;;0.77;;
10293;SDS011;5192;50.328;7.610;2023-12-29T13:10:44;1.47;;;0.77;;
10293;SDS011;5192;50.328;7.610;2023-12-29T13:13:11;0.70;;;0.60;;
10293;SDS011;5192;50.328;7.610;2023-12-29T13:15:51;0.60;;;0.60;;
10293;SDS011;5192;50.328;7.610;2023-12-29T13:18:28;0.80;;;0.60;;
10293;SDS011;5192;50.328;7.610;2023-12-29T13:20:54;0.90;;;0.90;;
10293;SDS011;5192;50.328;7.610;2023-12-29T13:23:24;1.17;;;0.80;;
10293;SDS011;5192;50.328;7.610;2023-12-29T13:25:51;2.87;;;0.90;;
10293;SDS011;5192;50.328;7.610;2023-12-29T13:28:22;1.53;;;0.70;;
10293;SDS011;5192;50.328;7.610;2023-12-29T13:30:51;1.23;;;0.70;;
10293;SDS011;5192;50.328;7.610;2023-12-29T13:33:24;0.77;;;0.60;;
10293;SDS011;5192;50.328;7.610;2023-12-29T13:36:22;1.17;;;0.50;;
10293;SDS011;5192;50.328;7.610;2023-12-29T13:38:48;1.00;;;0.60;;
10293;SDS011;5192;50.328;7.610;2023-12-29T13:41:19;0.73;;;0.60;;
10293;SDS011;5192;50.328;7.610;2023-12-29T13:43:48;2.13;;;0.90;;
10293;SDS011;5192;50.328;7.610;2023-12-29T13:46:15;2.00;;;0.80;;
10293;SDS011;5192;50.328;7.610;2023-12-29T13:48:42;1.40;;;0.80;;
10293;SDS011;5192;50.328;7.610;2023-12-29T13:51:11;1.93;;;0.77;;
10293;SDS011;5192;50.328;7.610;2023-12-29T13:53:38;1.90;;;0.73;;
10293;SDS011;5192;50.328;7.610;2023-12-29T13:56:06;1.93;;;0.80;;
10293;SDS011;5192;50.328;7.610;2023-12-29T13:58:33;1.30;;;0.90;;
10293;SDS011;5192;50.328;7.610;2023-12-29T14:01:03;2.10;;;1.20;;
10293;SDS011;5192;50.328;7.610;2023-12-29T14:04:13;1.50;;;1.10;;
10293;SDS011;5192;50.328;7.610;2023-12-29T14:06:30;1.60;;;0.83;;
10293;SDS011;5192;50.328;7.610;2023-12-29T14:08:58;2.10;;;1.17;;
10293;SDS011;5192;50.328;7.610;2023-12-29T14:11:26;1.87;;;1.20;;
10293;SDS011;5192;50.328;7.610;2023-12-29T14:13:53;1.37;;;1.27;;
10293;SDS011;5192;50.328;7.610;2023-12-29T14:16:21;2.57;;;1.13;;
10293;SDS011;5192;50.328;7.610;2023-12-29T14:21:33;3.13;;;1.53;;
10293;SDS011;5192;50.328;7.610;2023-12-29T14:24:22;1.63;;;1.20;;
10293;SDS011;5192;50.328;7.610;2023-12-29T14:29:39;1.27;;;0.90;;
10293;SDS011;5192;50.328;7.610;2023-12-29T14:32:09;1.07;;;0.73;;
10293;SDS011;5192;50.328;7.610;2023-12-29T14:34:37;3.33;;;0.90;;
10293;SDS011;5192;50.328;7.610;2023-12-29T14:37:04;0.70;;;0.70;;
10293;SDS011;5192;50.328;7.610;2023-12-29T14:39:32;1.90;;;1.00;;
10293;SDS011;5192;50.328;7.610;2023-12-29T14:42:00;2.10;;;0.90;;
10293;SDS011;5192;50.328;7.610;2023-12-29T14:44:28;0.77;;;0.70;;
10293;SDS011;5192;50.328;7.610;2023-12-29T14:46:57;1.80;;;1.20;;
10293;SDS011;5192;50.328;7.610;2023-12-29T14:49:24;2.73;;;1.07;;
10293;SDS011;5192;50.328;7.610;2023-12-29T14:51:53;2.90;;;0.97;;
10293;SDS011;5192;50.328;7.610;2023-12-29T14:54:22;1.70;;;0.63;;
10293;SDS011;5192;50.328;7.610;2023-12-29T14:56:50;1.70;;;0.70;;
10293;SDS011;5192;50.328;7.610;2023-12-29T14:59:19;1.93;;;1.00;;
10293;SDS011;5192;50.328;7.610;2023-12-29T15:01:47;2.53;;;1.10;;
10293;SDS011;5192;50.328;7.610;2023-12-29T15:04:14;2.13;;;1.10;;
10293;SDS011;5192;50.328;7.610;2023-12-29T15:06:41;2.67;;;1.17;;
10293;SDS011;5192;50.328;7.610;2023-12-29T15:09:08;0.93;;;0.80;;
10293;SDS011;5192;50.328;7.610;2023-12-29T15:11:37;0.77;;;0.70;;
10293;SDS011;5192;50.328;7.610;2023-12-29T15:14:04;3.53;;;0.90;;
10293;SDS011;5192;50.328;7.610;2023-12-29T15:16:33;2.00;;;1.07;;
10293;SDS011;5192;50.328;7.610;2023-12-29T15:19:00;1.80;;;1.10;;
10293;SDS011;5192;50.328;7.610;2023-12-29T15:21:30;1.03;;;0.90;;
10293;SDS011;5192;50.328;7.610;2023-12-29T15:23:57;2.73;;;0.90;;
10293;SDS011;5192;50.328;7.610;2023-12-29T15:26:24;2.80;;;1.13;;
10293;SDS011;5192;50.328;7.610;2023-12-29T15:28:51;2.83;;;1.00;;
10293;SDS011;5192;50.328;7.610;2023-12-29T15:31:23;1.23;;;0.80;;
10293;SDS011;5192;50.328;7.610;2023-12-29T15:33:53;2.10;;;0.93;;
10293;SDS011;5192;50.328;7.610;2023-12-29T15:36:22;3.03;;;0.97;;
10293;SDS011;5192;50.328;7.610;2023-12-29T15:38:50;0.83;;;0.83;;
10293;SDS011;5192;50.328;7.610;2023-12-29T15:41:17;1.13;;;0.90;;
10293;SDS011;5192;50.328;7.610;2023-12-29T15:43:46;1.00;;;0.90;;
10293;SDS011;5192;50.328;7.610;2023-12-29T15:46:19;2.40;;;1.00;;